sensor_id;sensor_type;location;lat;lon;timestamp;P1;durP1;ratioP1;P2;durP2;ratioP2
10645;SDS011;5371;49.782;9.932;2023-04-01T00:01:00;4.40;;;1.20;;
10645;SDS011;5371;49.782;9.932;2023-04-01T00:03:29;3.65;;;1.20;;
10645;SDS011;5371;49.782;9.932;2023-04-01T00:05:56;2.90;;;1.33;;
10645;SDS011;5371;49.782;9.932;2023-04-01T00:08:23;4.20;;;1.38;;
10645;SDS011;5371;49.782;9.932;2023-04-01T00:10:50;3.58;;;1.30;;
10645;SDS011;5371;49.782;9.932;2023-04-01T00:13:17;2.28;;;1.08;;
10645;SDS011;5371;49.782;9.932;2023-04-01T00:15:44;4.05;;;1.23;;
10645;SDS011;5371;49.782;9.932;2023-04-01T00:18:11;3.22;;;1.10;;
10645;SDS011;5371;49.782;9.932;2023-04-01T00:20:42;2.90;;;1.25;;
10645;SDS011;5371;49.782;9.932;2023-04-01T00:23:09;4.10;;;1.33;;
10645;SDS011;5371;49.782;9.932;2023-04-01T00:25:36;2.92;;;1.13;;
10645;SDS011;5371;49.782;9.932;2023-04-01T00:28:02;4.03;;;1.08;;
10645;SDS011;5371;49.782;9.932;2023-04-01T00:30:30;3.17;;;1.10;;
10645;SDS011;5371;49.782;9.932;2023-04-01T00:32:56;6.60;;;1.30;;
10645;SDS011;5371;49.782;9.932;2023-04-01T00:35:23;2.42;;;1.10;;
10645;SDS011;5371;49.782;9.932;2023-04-01T00:37:51;4.28;;;1.13;;
10645;SDS011;5371;49.782;9.932;2023-04-01T00:40:23;3.03;;;1.10;;
10645;SDS011;5371;49.782;9.932;2023-04-01T00:42:50;2.22;;;1.20;;
10645;SDS011;5371;49.782;9.932;2023-04-01T00:45:25;2.47;;;1.02;;
10645;SDS011;5371;49.782;9.932;2023-04-01T00:47:52;4.55;;;1.15;;
10645;SDS011;5371;49.782;9.932;2023-04-01T00:50:19;3.38;;;1.00;;
10645;SDS011;5371;49.782;9.932;2023-04-01T00:52:47;3.33;;;1.10;;
10645;SDS011;5371;49.782;9.932;2023-04-01T00:55:15;3.15;;;1.00;;
10645;SDS011;5371;49.782;9.932;2023-04-01T00:57:43;4.65;;;1.25;;
10645;SDS011;5371;49.782;9.932;2023-04-01T01:00:11;3.40;;;1.20;;
10645;SDS011;5371;49.782;9.932;2023-04-01T01:02:40;4.38;;;1.00;;
10645;SDS011;5371;49.782;9.932;2023-04-01T01:05:07;4.07;;;1.10;;
10645;SDS011;5371;49.782;9.932;2023-04-01T01:07:35;4.15;;;0.93;;
10645;SDS011;5371;49.782;9.932;2023-04-01T01:10:07;2.17;;;1.20;;
10645;SDS011;5371;49.782;9.932;2023-04-01T01:12:39;3.58;;;1.10;;
10645;SDS011;5371;49.782;9.932;2023-04-01T01:15:09;3.63;;;1.13;;
10645;SDS011;5371;49.782;9.932;2023-04-01T01:17:42;4.55;;;1.33;;
10645;SDS011;5371;49.782;9.932;2023-04-01T01:20:15;5.95;;;1.35;;
10645;SDS011;5371;49.782;9.932;2023-04-01T01:22:50;4.28;;;1.08;;
10645;SDS011;5371;49.782;9.932;2023-04-01T01:25:23;2.47;;;1.30;;
10645;SDS011;5371;49.782;9.932;2023-04-01T01:27:57;3.13;;;1.08;;
10645;SDS011;5371;49.782;9.932;2023-04-01T01:30:36;4.82;;;1.27;;
10645;SDS011;5371;49.782;9.932;2023-04-01T01:33:17;4.05;;;1.23;;
10645;SDS011;5371;49.782;9.932;2023-04-01T01:35:50;3.25;;;1.10;;
10645;SDS011;5371;49.782;9.932;2023-04-01T01:38:20;6.10;;;1.20;;
10645;SDS011;5371;49.782;9.932;2023-04-01T01:40:57;3.20;;;1.00;;
10645;SDS011;5371;49.782;9.932;2023-04-01T01:43:26;2.70;;;1.20;;
10645;SDS011;5371;49.782;9.932;2023-04-01T01:45:55;5.30;;;1.15;;
10645;SDS011;5371;49.782;9.932;2023-04-01T01:48:23;4.80;;;1.35;;
10645;SDS011;5371;49.782;9.932;2023-04-01T01:50:52;3.30;;;1.02;;
10645;SDS011;5371;49.782;9.932;2023-04-01T01:53:19;4.97;;;1.20;;
10645;SDS011;5371;49.782;9.932;2023-04-01T01:55:47;6.05;;;1.48;;
10645;SDS011;5371;49.782;9.932;2023-04-01T01:58:16;3.97;;;1.10;;
10645;SDS011;5371;49.782;9.932;2023-04-01T02:00:44;3.53;;;1.17;;
10645;SDS011;5371;49.782;9.932;2023-04-01T02:03:12;3.40;;;1.00;;
10645;SDS011;5371;49.782;9.932;2023-04-01T02:05:40;4.25;;;1.08;;
10645;SDS011;5371;49.782;9.932;2023-04-01T02:08:10;4.78;;;1.20;;
10645;SDS011;5371;49.782;9.932;2023-04-01T02:10:40;3.53;;;1.30;;
10645;SDS011;5371;49.782;9.932;2023-04-01T02:13:09;2.95;;;1.00;;
10645;SDS011;5371;49.782;9.932;2023-04-01T02:15:37;4.38;;;1.00;;
10645;SDS011;5371;49.782;9.932;2023-04-01T02:18:07;3.95;;;1.17;;
10645;SDS011;5371;49.782;9.932;2023-04-01T02:20:34;4.55;;;1.30;;
10645;SDS011;5371;49.782;9.932;2023-04-01T02:23:02;3.53;;;1.20;;
10645;SDS011;5371;49.782;9.932;2023-04-01T02:25:33;4.35;;;1.25;;
10645;SDS011;5371;49.782;9.932;2023-04-01T02:28:00;4.30;;;1.17;;
10645;SDS011;5371;49.782;9.932;2023-04-01T02:30:29;4.00;;;1.50;;
10645;SDS011;5371;49.782;9.932;2023-04-01T02:32:58;5.00;;;1.17;;
10645;SDS011;5371;49.782;9.932;2023-04-01T02:35:25;3.85;;;1.10;;
10645;SDS011;5371;49.782;9.932;2023-04-01T02:37:52;2.83;;;1.02;;
10645;SDS011;5371;49.782;9.932;2023-04-01T02:40:20;5.03;;;1.20;;
10645;SDS011;5371;49.782;9.932;2023-04-01T02:42:48;3.20;;;1.10;;
10645;SDS011;5371;49.782;9.932;2023-04-01T02:45:15;4.75;;;0.95;;
10645;SDS011;5371;49.782;9.932;2023-04-01T02:47:41;1.98;;;0.90;;
10645;SDS011;5371;49.782;9.932;2023-04-01T02:50:08;4.20;;;1.17;;
10645;SDS011;5371;49.782;9.932;2023-04-01T02:52:35;4.63;;;1.25;;
10645;SDS011;5371;49.782;9.932;2023-04-01T02:55:02;5.20;;;1.60;;
10645;SDS011;5371;49.782;9.932;2023-04-01T02:57:30;3.33;;;1.20;;
10645;SDS011;5371;49.782;9.932;2023-04-01T02:59:58;4.90;;;1.23;;
10645;SDS011;5371;49.782;9.932;2023-04-01T03:02:24;3.85;;;1.05;;
10645;SDS011;5371;49.782;9.932;2023-04-01T03:04:52;3.30;;;1.30;;
10645;SDS011;5371;49.782;9.932;2023-04-01T03:07:18;3.20;;;1.15;;
10645;SDS011;5371;49.782;9.932;2023-04-01T03:09:45;2.40;;;0.90;;
10645;SDS011;5371;49.782;9.932;2023-04-01T03:12:12;4.20;;;1.00;;
10645;SDS011;5371;49.782;9.932;2023-04-01T03:14:48;3.30;;;1.20;;
10645;SDS011;5371;49.782;9.932;2023-04-01T03:17:16;3.95;;;1.20;;
10645;SDS011;5371;49.782;9.932;2023-04-01T03:19:43;4.55;;;1.30;;
10645;SDS011;5371;49.782;9.932;2023-04-01T03:22:10;5.80;;;1.13;;
10645;SDS011;5371;49.782;9.932;2023-04-01T03:24:37;5.20;;;1.48;;
10645;SDS011;5371;49.782;9.932;2023-04-01T03:27:04;3.65;;;1.13;;
10645;SDS011;5371;49.782;9.932;2023-04-01T03:29:30;4.17;;;1.30;;
10645;SDS011;5371;49.782;9.932;2023-04-01T03:31:58;5.40;;;1.58;;
10645;SDS011;5371;49.782;9.932;2023-04-01T03:34:26;2.57;;;1.00;;
10645;SDS011;5371;49.782;9.932;2023-04-01T03:36:53;4.10;;;1.30;;
10645;SDS011;5371;49.782;9.932;2023-04-01T03:39:20;2.58;;;1.20;;
10645;SDS011;5371;49.782;9.932;2023-04-01T03:41:48;4.70;;;1.30;;
10645;SDS011;5371;49.782;9.932;2023-04-01T03:44:15;4.78;;;1.27;;
10645;SDS011;5371;49.782;9.932;2023-04-01T03:46:42;2.65;;;1.25;;
10645;SDS011;5371;49.782;9.932;2023-04-01T03:49:09;4.55;;;1.42;;
10645;SDS011;5371;49.782;9.932;2023-04-01T03:51:38;5.73;;;1.20;;
10645;SDS011;5371;49.782;9.932;2023-04-01T03:54:05;3.10;;;1.15;;
10645;SDS011;5371;49.782;9.932;2023-04-01T03:56:31;4.53;;;1.10;;
10645;SDS011;5371;49.782;9.932;2023-04-01T03:58:58;3.67;;;1.20;;
10645;SDS011;5371;49.782;9.932;2023-04-01T04:01:27;4.13;;;1.30;;
10645;SDS011;5371;49.782;9.932;2023-04-01T04:03:55;2.67;;;1.10;;
10645;SDS011;5371;49.782;9.932;2023-04-01T04:06:23;1.83;;;1.10;;
10645;SDS011;5371;49.782;9.932;2023-04-01T04:08:51;2.97;;;1.38;;
10645;SDS011;5371;49.782;9.932;2023-04-01T04:11:19;3.85;;;1.38;;
10645;SDS011;5371;49.782;9.932;2023-04-01T04:13:47;3.90;;;1.40;;
10645;SDS011;5371;49.782;9.932;2023-04-01T04:16:15;3.03;;;1.30;;
10645;SDS011;5371;49.782;9.932;2023-04-01T04:18:45;3.55;;;1.00;;
10645;SDS011;5371;49.782;9.932;2023-04-01T04:21:12;3.75;;;1.27;;
10645;SDS011;5371;49.782;9.932;2023-04-01T04:23:40;4.85;;;1.30;;
10645;SDS011;5371;49.782;9.932;2023-04-01T04:26:09;1.90;;;0.98;;
10645;SDS011;5371;49.782;9.932;2023-04-01T04:28:37;4.60;;;1.23;;
10645;SDS011;5371;49.782;9.932;2023-04-01T04:31:04;2.33;;;1.15;;
10645;SDS011;5371;49.782;9.932;2023-04-01T04:33:33;3.13;;;1.20;;
10645;SDS011;5371;49.782;9.932;2023-04-01T04:36:01;2.47;;;1.20;;
10645;SDS011;5371;49.782;9.932;2023-04-01T04:38:28;3.92;;;1.23;;
10645;SDS011;5371;49.782;9.932;2023-04-01T04:40:55;4.30;;;1.20;;
10645;SDS011;5371;49.782;9.932;2023-04-01T04:43:23;4.13;;;1.40;;
10645;SDS011;5371;49.782;9.932;2023-04-01T04:45:50;1.85;;;0.93;;
10645;SDS011;5371;49.782;9.932;2023-04-01T04:48:17;2.20;;;1.10;;
10645;SDS011;5371;49.782;9.932;2023-04-01T04:50:46;2.13;;;0.90;;
10645;SDS011;5371;49.782;9.932;2023-04-01T04:53:13;3.83;;;1.15;;
10645;SDS011;5371;49.782;9.932;2023-04-01T04:55:42;2.97;;;1.20;;
10645;SDS011;5371;49.782;9.932;2023-04-01T04:58:29;1.47;;;0.83;;
10645;SDS011;5371;49.782;9.932;2023-04-01T05:00:56;4.10;;;0.93;;
10645;SDS011;5371;49.782;9.932;2023-04-01T05:03:27;3.30;;;0.80;;
10645;SDS011;5371;49.782;9.932;2023-04-01T05:05:54;1.88;;;0.93;;
10645;SDS011;5371;49.782;9.932;2023-04-01T05:08:21;3.92;;;1.05;;
10645;SDS011;5371;49.782;9.932;2023-04-01T05:10:48;1.63;;;1.00;;
10645;SDS011;5371;49.782;9.932;2023-04-01T05:13:15;2.60;;;1.13;;
10645;SDS011;5371;49.782;9.932;2023-04-01T05:15:47;1.95;;;0.70;;
10645;SDS011;5371;49.782;9.932;2023-04-01T05:18:13;3.45;;;1.30;;
10645;SDS011;5371;49.782;9.932;2023-04-01T05:20:45;1.75;;;0.80;;
10645;SDS011;5371;49.782;9.932;2023-04-01T05:23:11;1.97;;;0.90;;
10645;SDS011;5371;49.782;9.932;2023-04-01T05:25:38;4.25;;;0.90;;
10645;SDS011;5371;49.782;9.932;2023-04-01T05:28:05;2.50;;;0.82;;
10645;SDS011;5371;49.782;9.932;2023-04-01T05:30:32;1.88;;;0.80;;
10645;SDS011;5371;49.782;9.932;2023-04-01T05:33:15;2.25;;;0.80;;
10645;SDS011;5371;49.782;9.932;2023-04-01T05:35:41;2.95;;;1.00;;
10645;SDS011;5371;49.782;9.932;2023-04-01T05:38:08;1.87;;;0.70;;
10645;SDS011;5371;49.782;9.932;2023-04-01T05:40:35;1.67;;;0.77;;
10645;SDS011;5371;49.782;9.932;2023-04-01T05:43:02;1.60;;;0.85;;
10645;SDS011;5371;49.782;9.932;2023-04-01T05:45:29;3.55;;;0.90;;
10645;SDS011;5371;49.782;9.932;2023-04-01T05:48:11;2.70;;;0.90;;
10645;SDS011;5371;49.782;9.932;2023-04-01T05:50:41;2.05;;;0.80;;
10645;SDS011;5371;49.782;9.932;2023-04-01T05:53:09;1.80;;;0.65;;
10645;SDS011;5371;49.782;9.932;2023-04-01T05:55:37;2.65;;;0.82;;
10645;SDS011;5371;49.782;9.932;2023-04-01T05:58:04;2.05;;;0.90;;
10645;SDS011;5371;49.782;9.932;2023-04-01T06:00:31;3.88;;;0.90;;
10645;SDS011;5371;49.782;9.932;2023-04-01T06:02:59;3.40;;;0.85;;
10645;SDS011;5371;49.782;9.932;2023-04-01T06:05:27;3.20;;;1.23;;
10645;SDS011;5371;49.782;9.932;2023-04-01T06:07:58;2.20;;;0.77;;
10645;SDS011;5371;49.782;9.932;2023-04-01T06:10:26;1.48;;;0.90;;
10645;SDS011;5371;49.782;9.932;2023-04-01T06:13:03;3.57;;;0.87;;
10645;SDS011;5371;49.782;9.932;2023-04-01T06:15:34;4.97;;;1.03;;
10645;SDS011;5371;49.782;9.932;2023-04-01T06:21:02;1.77;;;0.90;;
10645;SDS011;5371;49.782;9.932;2023-04-01T06:26:17;3.70;;;1.00;;
10645;SDS011;5371;49.782;9.932;2023-04-01T06:34:32;2.22;;;0.98;;
10645;SDS011;5371;49.782;9.932;2023-04-01T06:37:06;2.42;;;0.85;;
10645;SDS011;5371;49.782;9.932;2023-04-01T06:39:47;2.25;;;0.88;;
10645;SDS011;5371;49.782;9.932;2023-04-01T06:42:24;3.65;;;1.00;;
10645;SDS011;5371;49.782;9.932;2023-04-01T06:44:57;2.13;;;0.77;;
10645;SDS011;5371;49.782;9.932;2023-04-01T06:47:49;4.07;;;1.02;;
10645;SDS011;5371;49.782;9.932;2023-04-01T06:50:36;2.88;;;0.85;;
10645;SDS011;5371;49.782;9.932;2023-04-01T06:53:27;2.08;;;1.00;;
10645;SDS011;5371;49.782;9.932;2023-04-01T06:56:16;2.70;;;0.77;;
10645;SDS011;5371;49.782;9.932;2023-04-01T06:58:55;2.92;;;0.90;;
10645;SDS011;5371;49.782;9.932;2023-04-01T07:01:26;1.23;;;0.63;;
10645;SDS011;5371;49.782;9.932;2023-04-01T07:03:55;3.10;;;0.80;;
10645;SDS011;5371;49.782;9.932;2023-04-01T07:06:24;2.38;;;0.90;;
10645;SDS011;5371;49.782;9.932;2023-04-01T07:08:54;2.25;;;0.80;;
10645;SDS011;5371;49.782;9.932;2023-04-01T07:11:24;2.97;;;1.00;;
10645;SDS011;5371;49.782;9.932;2023-04-01T07:14:15;1.30;;;0.77;;
10645;SDS011;5371;49.782;9.932;2023-04-01T07:16:44;2.20;;;0.80;;
10645;SDS011;5371;49.782;9.932;2023-04-01T07:19:14;3.10;;;0.80;;
10645;SDS011;5371;49.782;9.932;2023-04-01T07:22:00;1.85;;;0.90;;
10645;SDS011;5371;49.782;9.932;2023-04-01T07:24:42;2.30;;;1.00;;
10645;SDS011;5371;49.782;9.932;2023-04-01T07:27:11;2.67;;;0.80;;
10645;SDS011;5371;49.782;9.932;2023-04-01T07:29:40;1.55;;;0.75;;
10645;SDS011;5371;49.782;9.932;2023-04-01T07:32:21;3.58;;;1.02;;
10645;SDS011;5371;49.782;9.932;2023-04-01T07:34:51;2.35;;;0.77;;
10645;SDS011;5371;49.782;9.932;2023-04-01T07:37:23;1.77;;;0.90;;
10645;SDS011;5371;49.782;9.932;2023-04-01T07:39:53;2.22;;;0.80;;
10645;SDS011;5371;49.782;9.932;2023-04-01T07:42:34;3.40;;;0.80;;
10645;SDS011;5371;49.782;9.932;2023-04-01T07:45:09;2.58;;;1.00;;
10645;SDS011;5371;49.782;9.932;2023-04-01T07:47:41;2.80;;;1.00;;
10645;SDS011;5371;49.782;9.932;2023-04-01T07:50:13;3.47;;;0.90;;
10645;SDS011;5371;49.782;9.932;2023-04-01T07:52:44;2.33;;;0.77;;
10645;SDS011;5371;49.782;9.932;2023-04-01T07:55:20;2.97;;;0.93;;
10645;SDS011;5371;49.782;9.932;2023-04-01T07:57:50;1.80;;;0.82;;
10645;SDS011;5371;49.782;9.932;2023-04-01T08:00:22;2.15;;;0.90;;
10645;SDS011;5371;49.782;9.932;2023-04-01T08:03:08;2.28;;;0.85;;
10645;SDS011;5371;49.782;9.932;2023-04-01T08:05:40;2.83;;;0.90;;
10645;SDS011;5371;49.782;9.932;2023-04-01T08:08:10;1.35;;;0.70;;
10645;SDS011;5371;49.782;9.932;2023-04-01T08:11:04;2.97;;;0.90;;
10645;SDS011;5371;49.782;9.932;2023-04-01T08:13:53;1.30;;;0.60;;
10645;SDS011;5371;49.782;9.932;2023-04-01T08:16:45;1.25;;;0.45;;
10645;SDS011;5371;49.782;9.932;2023-04-01T08:19:21;1.90;;;0.80;;
10645;SDS011;5371;49.782;9.932;2023-04-01T08:21:56;2.92;;;0.70;;
10645;SDS011;5371;49.782;9.932;2023-04-01T08:24:25;1.30;;;0.70;;
10645;SDS011;5371;49.782;9.932;2023-04-01T08:26:53;2.65;;;0.82;;
10645;SDS011;5371;49.782;9.932;2023-04-01T08:29:22;2.72;;;0.80;;
10645;SDS011;5371;49.782;9.932;2023-04-01T08:31:53;1.05;;;0.55;;
10645;SDS011;5371;49.782;9.932;2023-04-01T08:34:25;2.65;;;0.57;;
10645;SDS011;5371;49.782;9.932;2023-04-01T08:36:57;0.75;;;0.63;;
10645;SDS011;5371;49.782;9.932;2023-04-01T08:39:28;0.98;;;0.60;;
10645;SDS011;5371;49.782;9.932;2023-04-01T08:45:15;1.38;;;0.60;;
10645;SDS011;5371;49.782;9.932;2023-04-01T08:47:59;1.25;;;0.60;;
10645;SDS011;5371;49.782;9.932;2023-04-01T08:50:42;1.33;;;0.60;;
10645;SDS011;5371;49.782;9.932;2023-04-01T08:53:32;1.63;;;0.50;;
10645;SDS011;5371;49.782;9.932;2023-04-01T08:56:05;1.48;;;0.80;;
10645;SDS011;5371;49.782;9.932;2023-04-01T09:01:29;2.25;;;0.77;;
10645;SDS011;5371;49.782;9.932;2023-04-01T09:04:12;1.58;;;0.60;;
10645;SDS011;5371;49.782;9.932;2023-04-01T09:06:44;2.20;;;0.70;;
10645;SDS011;5371;49.782;9.932;2023-04-01T09:12:23;2.90;;;0.65;;
10645;SDS011;5371;49.782;9.932;2023-04-01T09:15:06;1.73;;;0.65;;
10645;SDS011;5371;49.782;9.932;2023-04-01T09:28:44;1.63;;;0.52;;
10645;SDS011;5371;49.782;9.932;2023-04-01T09:31:19;3.05;;;0.70;;
10645;SDS011;5371;49.782;9.932;2023-04-01T09:34:19;1.35;;;0.77;;
10645;SDS011;5371;49.782;9.932;2023-04-01T09:37:04;1.83;;;0.50;;
10645;SDS011;5371;49.782;9.932;2023-04-01T09:39:35;0.80;;;0.50;;
10645;SDS011;5371;49.782;9.932;2023-04-01T09:42:07;1.02;;;0.63;;
10645;SDS011;5371;49.782;9.932;2023-04-01T09:44:41;1.05;;;0.50;;
10645;SDS011;5371;49.782;9.932;2023-04-01T09:47:16;2.65;;;0.52;;
10645;SDS011;5371;49.782;9.932;2023-04-01T09:49:57;2.67;;;1.08;;
10645;SDS011;5371;49.782;9.932;2023-04-01T09:52:31;0.50;;;0.40;;
10645;SDS011;5371;49.782;9.932;2023-04-01T09:55:16;1.98;;;0.73;;
10645;SDS011;5371;49.782;9.932;2023-04-01T10:00:56;0.57;;;0.47;;
10645;SDS011;5371;49.782;9.932;2023-04-01T10:03:54;0.95;;;0.60;;
10645;SDS011;5371;49.782;9.932;2023-04-01T10:12:17;0.73;;;0.57;;
10645;SDS011;5371;49.782;9.932;2023-04-01T10:14:59;0.85;;;0.60;;
10645;SDS011;5371;49.782;9.932;2023-04-01T10:23:32;1.60;;;0.60;;
10645;SDS011;5371;49.782;9.932;2023-04-01T10:26:18;1.10;;;0.63;;
10645;SDS011;5371;49.782;9.932;2023-04-01T10:31:52;0.57;;;0.50;;
10645;SDS011;5371;49.782;9.932;2023-04-01T10:34:30;0.75;;;0.60;;
10645;SDS011;5371;49.782;9.932;2023-04-01T10:37:07;1.10;;;0.70;;
10645;SDS011;5371;49.782;9.932;2023-04-01T10:39:58;0.75;;;0.50;;
10645;SDS011;5371;49.782;9.932;2023-04-01T10:43:01;1.02;;;0.70;;
10645;SDS011;5371;49.782;9.932;2023-04-01T10:51:16;1.35;;;0.50;;
10645;SDS011;5371;49.782;9.932;2023-04-01T10:54:03;0.50;;;0.50;;
10645;SDS011;5371;49.782;9.932;2023-04-01T10:56:53;0.95;;;0.50;;
10645;SDS011;5371;49.782;9.932;2023-04-01T11:03:07;0.50;;;0.50;;
10645;SDS011;5371;49.782;9.932;2023-04-01T11:09:15;1.73;;;0.43;;
10645;SDS011;5371;49.782;9.932;2023-04-01T11:11:54;1.65;;;0.60;;
10645;SDS011;5371;49.782;9.932;2023-04-01T11:17:30;0.93;;;0.70;;
10645;SDS011;5371;49.782;9.932;2023-04-01T11:20:06;0.50;;;0.47;;
10645;SDS011;5371;49.782;9.932;2023-04-01T11:22:51;1.25;;;0.77;;
10645;SDS011;5371;49.782;9.932;2023-04-01T11:28:39;0.50;;;0.50;;
10645;SDS011;5371;49.782;9.932;2023-04-01T11:31:25;0.82;;;0.60;;
10645;SDS011;5371;49.782;9.932;2023-04-01T11:33:57;1.80;;;0.60;;
10645;SDS011;5371;49.782;9.932;2023-04-01T11:36:33;1.00;;;0.63;;
10645;SDS011;5371;49.782;9.932;2023-04-01T11:39:08;2.40;;;0.70;;
10645;SDS011;5371;49.782;9.932;2023-04-01T11:41:58;4.47;;;0.98;;
10645;SDS011;5371;49.782;9.932;2023-04-01T11:44:53;2.40;;;0.70;;
10645;SDS011;5371;49.782;9.932;2023-04-01T11:47:41;2.78;;;0.70;;
10645;SDS011;5371;49.782;9.932;2023-04-01T11:50:15;2.40;;;0.70;;
10645;SDS011;5371;49.782;9.932;2023-04-01T11:52:55;2.47;;;0.80;;
10645;SDS011;5371;49.782;9.932;2023-04-01T11:55:35;0.50;;;0.50;;
10645;SDS011;5371;49.782;9.932;2023-04-01T11:58:12;20.52;;;2.47;;
10645;SDS011;5371;49.782;9.932;2023-04-01T12:03:41;0.60;;;0.60;;
10645;SDS011;5371;49.782;9.932;2023-04-01T12:06:11;4.53;;;0.70;;
10645;SDS011;5371;49.782;9.932;2023-04-01T12:08:42;1.38;;;0.80;;
10645;SDS011;5371;49.782;9.932;2023-04-01T12:11:13;1.92;;;0.70;;
10645;SDS011;5371;49.782;9.932;2023-04-01T12:13:45;1.25;;;0.40;;
10645;SDS011;5371;49.782;9.932;2023-04-01T12:16:37;0.98;;;0.70;;
10645;SDS011;5371;49.782;9.932;2023-04-01T12:19:12;1.55;;;0.70;;
10645;SDS011;5371;49.782;9.932;2023-04-01T12:21:42;2.20;;;0.65;;
10645;SDS011;5371;49.782;9.932;2023-04-01T12:27:14;1.02;;;0.60;;
10645;SDS011;5371;49.782;9.932;2023-04-01T12:32:31;1.00;;;0.65;;
10645;SDS011;5371;49.782;9.932;2023-04-01T12:35:05;1.75;;;0.68;;
10645;SDS011;5371;49.782;9.932;2023-04-01T12:37:39;2.08;;;0.70;;
10645;SDS011;5371;49.782;9.932;2023-04-01T12:40:20;0.93;;;0.82;;
10645;SDS011;5371;49.782;9.932;2023-04-01T12:42:59;0.57;;;0.57;;
10645;SDS011;5371;49.782;9.932;2023-04-01T12:45:29;0.73;;;0.45;;
10645;SDS011;5371;49.782;9.932;2023-04-01T12:48:05;0.73;;;0.50;;
10645;SDS011;5371;49.782;9.932;2023-04-01T12:50:41;0.55;;;0.52;;
10645;SDS011;5371;49.782;9.932;2023-04-01T12:53:20;0.80;;;0.70;;
10645;SDS011;5371;49.782;9.932;2023-04-01T12:55:49;2.33;;;1.10;;
10645;SDS011;5371;49.782;9.932;2023-04-01T12:58:23;2.55;;;0.52;;
10645;SDS011;5371;49.782;9.932;2023-04-01T13:03:44;2.35;;;0.70;;
10645;SDS011;5371;49.782;9.932;2023-04-01T13:09:12;0.80;;;0.70;;
10645;SDS011;5371;49.782;9.932;2023-04-01T13:11:47;0.77;;;0.55;;
10645;SDS011;5371;49.782;9.932;2023-04-01T13:14:23;1.08;;;0.70;;
10645;SDS011;5371;49.782;9.932;2023-04-01T13:16:55;1.40;;;0.80;;
10645;SDS011;5371;49.782;9.932;2023-04-01T13:19:25;0.65;;;0.65;;
10645;SDS011;5371;49.782;9.932;2023-04-01T13:21:54;0.98;;;0.60;;
10645;SDS011;5371;49.782;9.932;2023-04-01T13:24:27;0.82;;;0.70;;
10645;SDS011;5371;49.782;9.932;2023-04-01T13:26:57;0.95;;;0.60;;
10645;SDS011;5371;49.782;9.932;2023-04-01T13:29:28;1.45;;;0.70;;
10645;SDS011;5371;49.782;9.932;2023-04-01T13:32:13;1.17;;;0.68;;
10645;SDS011;5371;49.782;9.932;2023-04-01T13:34:47;1.77;;;0.73;;
10645;SDS011;5371;49.782;9.932;2023-04-01T13:37:30;1.25;;;0.70;;
10645;SDS011;5371;49.782;9.932;2023-04-01T13:40:10;0.95;;;0.68;;
10645;SDS011;5371;49.782;9.932;2023-04-01T13:42:41;1.23;;;0.60;;
10645;SDS011;5371;49.782;9.932;2023-04-01T13:45:12;0.63;;;0.63;;
10645;SDS011;5371;49.782;9.932;2023-04-01T13:47:46;0.50;;;0.50;;
10645;SDS011;5371;49.782;9.932;2023-04-01T13:50:26;0.80;;;0.60;;
10645;SDS011;5371;49.782;9.932;2023-04-01T13:53:02;1.48;;;0.50;;
10645;SDS011;5371;49.782;9.932;2023-04-01T13:55:36;0.90;;;0.80;;
10645;SDS011;5371;49.782;9.932;2023-04-01T13:58:20;0.93;;;0.60;;
10645;SDS011;5371;49.782;9.932;2023-04-01T14:00:54;0.98;;;0.90;;
10645;SDS011;5371;49.782;9.932;2023-04-01T14:06:20;0.80;;;0.70;;
10645;SDS011;5371;49.782;9.932;2023-04-01T14:08:55;0.88;;;0.70;;
10645;SDS011;5371;49.782;9.932;2023-04-01T14:11:27;1.00;;;0.70;;
10645;SDS011;5371;49.782;9.932;2023-04-01T14:14:01;1.48;;;0.80;;
10645;SDS011;5371;49.782;9.932;2023-04-01T14:16:40;2.83;;;0.80;;
10645;SDS011;5371;49.782;9.932;2023-04-01T14:19:11;0.93;;;0.82;;
10645;SDS011;5371;49.782;9.932;2023-04-01T14:21:45;0.82;;;0.70;;
10645;SDS011;5371;49.782;9.932;2023-04-01T14:27:03;0.80;;;0.70;;
10645;SDS011;5371;49.782;9.932;2023-04-01T14:29:36;0.70;;;0.60;;
10645;SDS011;5371;49.782;9.932;2023-04-01T14:32:07;0.88;;;0.70;;
10645;SDS011;5371;49.782;9.932;2023-04-01T14:34:46;0.68;;;0.63;;
10645;SDS011;5371;49.782;9.932;2023-04-01T14:37:20;0.95;;;0.80;;
10645;SDS011;5371;49.782;9.932;2023-04-01T14:39:59;0.57;;;0.57;;
10645;SDS011;5371;49.782;9.932;2023-04-01T14:42:38;0.50;;;0.50;;
10645;SDS011;5371;49.782;9.932;2023-04-01T14:47:50;0.65;;;0.65;;
10645;SDS011;5371;49.782;9.932;2023-04-01T14:50:20;1.63;;;0.70;;
10645;SDS011;5371;49.782;9.932;2023-04-01T14:52:51;0.75;;;0.75;;
10645;SDS011;5371;49.782;9.932;2023-04-01T14:55:20;1.00;;;0.73;;
10645;SDS011;5371;49.782;9.932;2023-04-01T14:57:58;1.55;;;0.60;;
10645;SDS011;5371;49.782;9.932;2023-04-01T15:00:26;0.70;;;0.60;;
10645;SDS011;5371;49.782;9.932;2023-04-01T15:02:56;0.80;;;0.73;;
10645;SDS011;5371;49.782;9.932;2023-04-01T15:05:29;1.13;;;0.70;;
10645;SDS011;5371;49.782;9.932;2023-04-01T15:08:03;1.02;;;0.77;;
10645;SDS011;5371;49.782;9.932;2023-04-01T15:10:49;0.77;;;0.70;;
10645;SDS011;5371;49.782;9.932;2023-04-01T15:13:23;3.08;;;0.73;;
10645;SDS011;5371;49.782;9.932;2023-04-01T15:16:01;0.73;;;0.70;;
10645;SDS011;5371;49.782;9.932;2023-04-01T15:18:32;0.80;;;0.73;;
10645;SDS011;5371;49.782;9.932;2023-04-01T15:21:06;1.15;;;0.60;;
10645;SDS011;5371;49.782;9.932;2023-04-01T15:23:41;1.20;;;0.80;;
10645;SDS011;5371;49.782;9.932;2023-04-01T15:26:15;0.88;;;0.68;;
10645;SDS011;5371;49.782;9.932;2023-04-01T15:28:49;0.60;;;0.60;;
10645;SDS011;5371;49.782;9.932;2023-04-01T15:31:18;2.17;;;0.90;;
10645;SDS011;5371;49.782;9.932;2023-04-01T15:33:49;0.85;;;0.80;;
10645;SDS011;5371;49.782;9.932;2023-04-01T15:36:26;2.35;;;0.77;;
10645;SDS011;5371;49.782;9.932;2023-04-01T15:38:56;0.70;;;0.70;;
10645;SDS011;5371;49.782;9.932;2023-04-01T15:41:27;0.85;;;0.70;;
10645;SDS011;5371;49.782;9.932;2023-04-01T15:43:56;1.60;;;0.80;;
10645;SDS011;5371;49.782;9.932;2023-04-01T15:49:08;2.75;;;0.70;;
10645;SDS011;5371;49.782;9.932;2023-04-01T15:51:40;0.98;;;0.75;;
10645;SDS011;5371;49.782;9.932;2023-04-01T15:54:17;0.65;;;0.65;;
10645;SDS011;5371;49.782;9.932;2023-04-01T15:56:53;0.75;;;0.75;;
10645;SDS011;5371;49.782;9.932;2023-04-01T15:59:28;1.13;;;1.00;;
10645;SDS011;5371;49.782;9.932;2023-04-01T16:02:02;1.08;;;0.90;;
10645;SDS011;5371;49.782;9.932;2023-04-01T16:04:38;1.65;;;1.13;;
10645;SDS011;5371;49.782;9.932;2023-04-01T16:07:10;1.02;;;0.93;;
10645;SDS011;5371;49.782;9.932;2023-04-01T16:09:47;1.63;;;1.30;;
10645;SDS011;5371;49.782;9.932;2023-04-01T16:12:18;1.35;;;0.95;;
10645;SDS011;5371;49.782;9.932;2023-04-01T16:14:58;1.15;;;0.93;;
10645;SDS011;5371;49.782;9.932;2023-04-01T16:17:44;0.93;;;0.90;;
10645;SDS011;5371;49.782;9.932;2023-04-01T16:20:15;2.08;;;1.10;;
10645;SDS011;5371;49.782;9.932;2023-04-01T16:22:45;1.00;;;0.90;;
10645;SDS011;5371;49.782;9.932;2023-04-01T16:25:21;0.95;;;0.85;;
10645;SDS011;5371;49.782;9.932;2023-04-01T16:27:56;1.40;;;0.88;;
10645;SDS011;5371;49.782;9.932;2023-04-01T16:30:35;2.10;;;0.90;;
10645;SDS011;5371;49.782;9.932;2023-04-01T16:33:02;1.23;;;0.90;;
10645;SDS011;5371;49.782;9.932;2023-04-01T16:35:31;0.93;;;0.90;;
10645;SDS011;5371;49.782;9.932;2023-04-01T16:38:03;0.98;;;0.88;;
10645;SDS011;5371;49.782;9.932;2023-04-01T16:40:36;6.55;;;1.05;;
10645;SDS011;5371;49.782;9.932;2023-04-01T16:43:10;1.15;;;1.00;;
10645;SDS011;5371;49.782;9.932;2023-04-01T16:45:40;1.67;;;0.90;;
10645;SDS011;5371;49.782;9.932;2023-04-01T16:48:11;0.82;;;0.75;;
10645;SDS011;5371;49.782;9.932;2023-04-01T16:50:42;1.58;;;0.90;;
10645;SDS011;5371;49.782;9.932;2023-04-01T16:53:14;0.70;;;0.70;;
10645;SDS011;5371;49.782;9.932;2023-04-01T16:55:44;0.80;;;0.80;;
10645;SDS011;5371;49.782;9.932;2023-04-01T16:58:14;1.73;;;0.80;;
10645;SDS011;5371;49.782;9.932;2023-04-01T17:00:47;1.13;;;0.90;;
10645;SDS011;5371;49.782;9.932;2023-04-01T17:03:16;1.20;;;0.80;;
10645;SDS011;5371;49.782;9.932;2023-04-01T17:05:49;1.05;;;0.80;;
10645;SDS011;5371;49.782;9.932;2023-04-01T17:08:21;0.80;;;0.68;;